sensor_id;sensor_type;location;lat;lon;timestamp;pressure;altitude;pressure_sealevel;temperature;humidity
52735;BME280;38631;47.572;10.704;2022-12-20T00:00:46;93190.53;;;-0.07;100.00
52735;BME280;38631;47.572;10.704;2022-12-20T00:03:12;93193.03;;;-0.12;100.00
52735;BME280;38631;47.572;10.704;2022-12-20T00:05:39;93201.84;;;-0.13;100.00
52735;BME280;38631;47.572;10.704;2022-12-20T00:08:05;93206.63;;;-0.10;100.00
52735;BME280;38631;47.572;10.704;2022-12-20T00:10:30;93203.13;;;-0.04;100.00
52735;BME280;38631;47.572;10.704;2022-12-20T00:12:55;93211.50;;;-0.14;100.00
52735;BME280;38631;47.572;10.704;2022-12-20T00:15:21;93206.38;;;-0.20;100.00
52735;BME280;38631;47.572;10.704;2022-12-20T00:17:46;93205.81;;;-0.23;100.00
52735;BME280;38631;47.572;10.704;2022-12-20T00:20:11;93216.38;;;-0.17;100.00
52735;BME280;38631;47.572;10.704;2022-12-20T00:22:37;93226.81;;;-0.17;100.00
52735;BME280;38631;47.572;10.704;2022-12-20T00:25:03;93217.38;;;-0.18;100.00
52735;BME280;38631;47.572;10.704;2022-12-20T00:27:28;93210.84;;;-0.09;100.00
52735;BME280;38631;47.572;10.704;2022-12-20T00:29:54;93208.81;;;-0.07;100.00
52735;BME280;38631;47.572;10.704;2022-12-20T00:32:19;93204.13;;;-0.05;100.00
52735;BME280;38631;47.572;10.704;2022-12-20T00:34:45;93193.94;;;-0.07;100.00
52735;BME280;38631;47.572;10.704;2022-12-20T00:37:10;93199.69;;;-0.16;100.00
52735;BME280;38631;47.572;10.704;2022-12-20T00:39:35;93198.91;;;-0.17;100.00
52735;BME280;38631;47.572;10.704;2022-12-20T00:42:01;93202.97;;;-0.21;100.00
52735;BME280;38631;47.572;10.704;2022-12-20T00:44:26;93208.84;;;-0.26;100.00
52735;BME280;38631;47.572;10.704;2022-12-20T00:46:52;93206.22;;;-0.07;100.00
52735;BME280;38631;47.572;10.704;2022-12-20T00:49:18;93201.97;;;-0.08;100.00
52735;BME280;38631;47.572;10.704;2022-12-20T00:51:43;93204.50;;;-0.02;100.00
52735;BME280;38631;47.572;10.704;2022-12-20T00:54:08;93204.06;;;0.02;100.00
52735;BME280;38631;47.572;10.704;2022-12-20T00:56:34;93195.34;;;0.08;100.00
52735;BME280;38631;47.572;10.704;2022-12-20T00:58:59;93200.13;;;0.11;100.00
52735;BME280;38631;47.572;10.704;2022-12-20T01:01:27;93190.78;;;0.03;100.00
52735;BME280;38631;47.572;10.704;2022-12-20T01:03:53;93183.25;;;-0.17;100.00
52735;BME280;38631;47.572;10.704;2022-12-20T01:06:19;93182.72;;;-0.07;100.00
52735;BME280;38631;47.572;10.704;2022-12-20T01:08:45;93178.81;;;-0.16;100.00
52735;BME280;38631;47.572;10.704;2022-12-20T01:11:17;93186.19;;;-0.13;100.00
52735;BME280;38631;47.572;10.704;2022-12-20T01:13:45;93179.41;;;-0.14;100.00
52735;BME280;38631;47.572;10.704;2022-12-20T01:16:12;93182.47;;;-0.06;100.00
52735;BME280;38631;47.572;10.704;2022-12-20T01:18:37;93184.88;;;-0.04;100.00
52735;BME280;38631;47.572;10.704;2022-12-20T01:21:05;93174.75;;;-0.01;100.00
52735;BME280;38631;47.572;10.704;2022-12-20T01:23:31;93187.03;;;-0.01;100.00
52735;BME280;38631;47.572;10.704;2022-12-20T01:25:58;93177.94;;;0.02;100.00
52735;BME280;38631;47.572;10.704;2022-12-20T01:28:23;93184.09;;;0.07;100.00
52735;BME280;38631;47.572;10.704;2022-12-20T01:30:49;93183.22;;;0.13;100.00
52735;BME280;38631;47.572;10.704;2022-12-20T01:33:14;93181.38;;;0.14;100.00
52735;BME280;38631;47.572;10.704;2022-12-20T01:35:39;93180.13;;;0.16;100.00
52735;BME280;38631;47.572;10.704;2022-12-20T01:38:05;93193.28;;;-0.02;100.00
52735;BME280;38631;47.572;10.704;2022-12-20T01:40:30;93206.53;;;-0.04;100.00
52735;BME280;38631;47.572;10.704;2022-12-20T01:42:55;93195.53;;;-0.06;100.00
52735;BME280;38631;47.572;10.704;2022-12-20T01:45:29;93195.06;;;-0.03;100.00
52735;BME280;38631;47.572;10.704;2022-12-20T01:47:56;93185.66;;;-0.04;100.00
52735;BME280;38631;47.572;10.704;2022-12-20T01:50:23;93175.00;;;-0.02;100.00
52735;BME280;38631;47.572;10.704;2022-12-20T01:52:50;93171.72;;;0.03;100.00
52735;BME280;38631;47.572;10.704;2022-12-20T01:55:19;93171.13;;;-0.11;100.00
52735;BME280;38631;47.572;10.704;2022-12-20T02:00:22;93183.69;;;-0.20;100.00
52735;BME280;38631;47.572;10.704;2022-12-20T02:02:48;93187.81;;;-0.12;100.00
52735;BME280;38631;47.572;10.704;2022-12-20T02:05:17;93195.28;;;-0.16;100.00
52735;BME280;38631;47.572;10.704;2022-12-20T02:07:45;93191.59;;;-0.27;100.00
52735;BME280;38631;47.572;10.704;2022-12-20T02:10:12;93185.59;;;-0.27;100.00
52735;BME280;38631;47.572;10.704;2022-12-20T02:12:40;93182.88;;;-0.32;100.00
52735;BME280;38631;47.572;10.704;2022-12-20T02:18:28;93174.63;;;-0.06;100.00
52735;BME280;38631;47.572;10.704;2022-12-20T02:21:13;93179.78;;;0.01;100.00
52735;BME280;38631;47.572;10.704;2022-12-20T02:27:30;93188.75;;;0.05;100.00
52735;BME280;38631;47.572;10.704;2022-12-20T02:30:19;93190.53;;;-0.07;100.00
52735;BME280;38631;47.572;10.704;2022-12-20T02:32:54;93174.31;;;-0.09;100.00
52735;BME280;38631;47.572;10.704;2022-12-20T02:35:24;93166.34;;;-0.03;100.00
52735;BME280;38631;47.572;10.704;2022-12-20T02:37:55;93158.41;;;-0.19;100.00
52735;BME280;38631;47.572;10.704;2022-12-20T02:40:24;93153.63;;;-0.11;100.00
52735;BME280;38631;47.572;10.704;2022-12-20T02:42:55;93155.25;;;-0.10;100.00
52735;BME280;38631;47.572;10.704;2022-12-20T02:45:26;93150.34;;;-0.06;100.00
52735;BME280;38631;47.572;10.704;2022-12-20T02:48:00;93154.00;;;-0.07;100.00
52735;BME280;38631;47.572;10.704;2022-12-20T02:50:31;93153.06;;;-0.25;100.00
52735;BME280;38631;47.572;10.704;2022-12-20T02:53:00;93153.47;;;-0.28;100.00
52735;BME280;38631;47.572;10.704;2022-12-20T02:55:37;93161.53;;;-0.29;100.00
52735;BME280;38631;47.572;10.704;2022-12-20T02:58:10;93155.16;;;-0.33;100.00
52735;BME280;38631;47.572;10.704;2022-12-20T03:00:40;93154.38;;;-0.34;100.00
52735;BME280;38631;47.572;10.704;2022-12-20T03:03:06;93153.78;;;-0.36;100.00
52735;BME280;38631;47.572;10.704;2022-12-20T03:05:51;93144.03;;;-0.40;100.00
52735;BME280;38631;47.572;10.704;2022-12-20T03:08:17;93147.00;;;-0.25;100.00
52735;BME280;38631;47.572;10.704;2022-12-20T03:10:43;93141.41;;;-0.52;100.00
52735;BME280;38631;47.572;10.704;2022-12-20T03:13:09;93149.25;;;-0.40;100.00
52735;BME280;38631;47.572;10.704;2022-12-20T03:15:34;93145.75;;;-0.34;100.00
52735;BME280;38631;47.572;10.704;2022-12-20T03:18:00;93143.41;;;-0.54;100.00
52735;BME280;38631;47.572;10.704;2022-12-20T03:20:25;93145.91;;;-0.59;100.00
52735;BME280;38631;47.572;10.704;2022-12-20T03:22:51;93136.19;;;-0.71;100.00
52735;BME280;38631;47.572;10.704;2022-12-20T03:25:16;93143.38;;;-0.66;100.00
52735;BME280;38631;47.572;10.704;2022-12-20T03:27:41;93143.88;;;-0.57;100.00
52735;BME280;38631;47.572;10.704;2022-12-20T03:30:07;93138.88;;;-0.59;100.00
52735;BME280;38631;47.572;10.704;2022-12-20T03:32:33;93145.50;;;-0.45;100.00
52735;BME280;38631;47.572;10.704;2022-12-20T03:34:58;93140.16;;;-0.50;100.00
52735;BME280;38631;47.572;10.704;2022-12-20T03:37:24;93130.06;;;-0.46;100.00
52735;BME280;38631;47.572;10.704;2022-12-20T03:39:49;93132.25;;;-0.31;100.00
52735;BME280;38631;47.572;10.704;2022-12-20T03:42:14;93134.53;;;-0.35;100.00
52735;BME280;38631;47.572;10.704;2022-12-20T03:44:40;93129.75;;;-0.38;100.00
52735;BME280;38631;47.572;10.704;2022-12-20T03:47:05;93124.22;;;-0.30;100.00
52735;BME280;38631;47.572;10.704;2022-12-20T03:49:30;93129.75;;;-0.38;100.00
52735;BME280;38631;47.572;10.704;2022-12-20T03:51:56;93125.34;;;-0.37;100.00
52735;BME280;38631;47.572;10.704;2022-12-20T03:54:21;93134.28;;;-0.33;100.00
52735;BME280;38631;47.572;10.704;2022-12-20T03:56:46;93135.44;;;-0.29;100.00
52735;BME280;38631;47.572;10.704;2022-12-20T03:59:12;93131.16;;;-0.24;100.00
52735;BME280;38631;47.572;10.704;2022-12-20T04:01:37;93136.81;;;-0.27;100.00
52735;BME280;38631;47.572;10.704;2022-12-20T04:04:03;93136.13;;;-0.34;100.00
52735;BME280;38631;47.572;10.704;2022-12-20T04:06:29;93131.34;;;-0.25;100.00
52735;BME280;38631;47.572;10.704;2022-12-20T04:08:54;93136.13;;;-0.34;100.00
52735;BME280;38631;47.572;10.704;2022-12-20T04:11:20;93134.28;;;-0.33;100.00
52735;BME280;38631;47.572;10.704;2022-12-20T04:13:51;93132.25;;;-0.31;100.00
52735;BME280;38631;47.572;10.704;2022-12-20T04:16:19;93124.56;;;-0.26;100.00
52735;BME280;38631;47.572;10.704;2022-12-20T04:18:44;93128.44;;;-0.17;100.00
52735;BME280;38631;47.572;10.704;2022-12-20T04:21:11;93127.66;;;-0.17;100.00
52735;BME280;38631;47.572;10.704;2022-12-20T04:23:37;93117.88;;;-0.22;100.00
52735;BME280;38631;47.572;10.704;2022-12-20T04:26:05;93117.22;;;-0.17;100.00
52735;BME280;38631;47.572;10.704;2022-12-20T04:28:31;93121.94;;;-0.26;100.00
52735;BME280;38631;47.572;10.704;2022-12-20T04:30:57;93112.28;;;-0.37;100.00
52735;BME280;38631;47.572;10.704;2022-12-20T04:33:26;93104.88;;;-0.52;100.00
52735;BME280;38631;47.572;10.704;2022-12-20T04:35:52;93096.72;;;-0.44;100.00
52735;BME280;38631;47.572;10.704;2022-12-20T04:38:19;93092.09;;;-0.42;100.00
52735;BME280;38631;47.572;10.704;2022-12-20T04:40:47;93094.03;;;-0.37;100.00
52735;BME280;38631;47.572;10.704;2022-12-20T04:43:13;93088.56;;;-0.36;100.00
52735;BME280;38631;47.572;10.704;2022-12-20T04:45:38;93084.63;;;-0.27;100.00
52735;BME280;38631;47.572;10.704;2022-12-20T04:48:03;93084.06;;;-0.17;100.00
52735;BME280;38631;47.572;10.704;2022-12-20T04:50:29;93081.47;;;-0.17;100.00
52735;BME280;38631;47.572;10.704;2022-12-20T04:52:54;93091.13;;;-0.17;100.00
52735;BME280;38631;47.572;10.704;2022-12-20T04:55:39;93094.75;;;-0.07;100.00
52735;BME280;38631;47.572;10.704;2022-12-20T04:58:05;93097.69;;;-0.03;100.00
52735;BME280;38631;47.572;10.704;2022-12-20T05:00:32;93091.59;;;0.03;100.00
52735;BME280;38631;47.572;10.704;2022-12-20T05:02:57;93086.38;;;0.03;100.00
52735;BME280;38631;47.572;10.704;2022-12-20T05:05:23;93077.13;;;-0.23;100.00
52735;BME280;38631;47.572;10.704;2022-12-20T05:07:49;93074.66;;;-0.18;100.00
52735;BME280;38631;47.572;10.704;2022-12-20T05:10:15;93076.38;;;-0.12;100.00
52735;BME280;38631;47.572;10.704;2022-12-20T05:12:40;93063.78;;;-0.15;100.00
52735;BME280;38631;47.572;10.704;2022-12-20T05:15:06;93061.47;;;-0.23;100.00
52735;BME280;38631;47.572;10.704;2022-12-20T05:17:32;93055.84;;;-0.20;100.00
52735;BME280;38631;47.572;10.704;2022-12-20T05:19:58;93056.03;;;-0.33;100.00
52735;BME280;38631;47.572;10.704;2022-12-20T05:22:23;93068.19;;;-0.27;100.00
52735;BME280;38631;47.572;10.704;2022-12-20T05:25:09;93058.06;;;-0.24;100.00
52735;BME280;38631;47.572;10.704;2022-12-20T05:27:53;93045.25;;;-0.13;100.00
52735;BME280;38631;47.572;10.704;2022-12-20T05:30:19;93055.59;;;-0.18;100.00
52735;BME280;38631;47.572;10.704;2022-12-20T05:32:44;93046.28;;;-0.14;100.00
52735;BME280;38631;47.572;10.704;2022-12-20T05:35:10;93052.53;;;-0.04;100.00
52735;BME280;38631;47.572;10.704;2022-12-20T05:37:35;93050.81;;;0.02;100.00
52735;BME280;38631;47.572;10.704;2022-12-20T05:40:00;93056.16;;;0.07;100.00
52735;BME280;38631;47.572;10.704;2022-12-20T05:42:26;93045.28;;;0.10;100.00
52735;BME280;38631;47.572;10.704;2022-12-20T05:44:51;93050.91;;;-0.28;100.00
52735;BME280;38631;47.572;10.704;2022-12-20T05:47:16;93051.41;;;-0.19;100.00
52735;BME280;38631;47.572;10.704;2022-12-20T05:49:42;93057.88;;;-0.22;100.00
52735;BME280;38631;47.572;10.704;2022-12-20T05:52:07;93060.25;;;-0.09;100.00
52735;BME280;38631;47.572;10.704;2022-12-20T05:54:32;93062.63;;;-0.19;100.00
52735;BME280;38631;47.572;10.704;2022-12-20T05:56:58;93065.56;;;-0.15;100.00
52735;BME280;38631;47.572;10.704;2022-12-20T05:59:23;93058.09;;;-0.12;100.00
52735;BME280;38631;47.572;10.704;2022-12-20T06:01:49;93056.28;;;0.01;100.00
52735;BME280;38631;47.572;10.704;2022-12-20T06:04:14;93049.94;;;-0.04;100.00
52735;BME280;38631;47.572;10.704;2022-12-20T06:06:40;93051.06;;;-0.11;100.00
52735;BME280;38631;47.572;10.704;2022-12-20T06:09:05;93053.22;;;-0.08;100.00
52735;BME280;38631;47.572;10.704;2022-12-20T06:11:30;93055.03;;;-0.09;100.00
52735;BME280;38631;47.572;10.704;2022-12-20T06:13:56;93046.75;;;-0.17;100.00
52735;BME280;38631;47.572;10.704;2022-12-20T06:16:21;93042.66;;;-0.13;100.00
52735;BME280;38631;47.572;10.704;2022-12-20T06:18:47;93040.72;;;-0.06;100.00
52735;BME280;38631;47.572;10.704;2022-12-20T06:21:12;93049.13;;;-0.04;100.00
52735;BME280;38631;47.572;10.704;2022-12-20T06:23:38;93035.63;;;-0.13;100.00
52735;BME280;38631;47.572;10.704;2022-12-20T06:26:04;93035.50;;;-0.18;100.00
52735;BME280;38631;47.572;10.704;2022-12-20T06:28:33;93028.25;;;-0.16;100.00
52735;BME280;38631;47.572;10.704;2022-12-20T06:30:58;93025.63;;;-0.16;100.00
52735;BME280;38631;47.572;10.704;2022-12-20T06:33:24;93020.41;;;-0.16;100.00
52735;BME280;38631;47.572;10.704;2022-12-20T06:35:50;93020.09;;;-0.19;100.00
52735;BME280;38631;47.572;10.704;2022-12-20T06:38:16;93020.53;;;-0.23;100.00
52735;BME280;38631;47.572;10.704;2022-12-20T06:40:41;93018.06;;;-0.17;100.00
52735;BME280;38631;47.572;10.704;2022-12-20T06:43:07;93017.69;;;-0.09;100.00
52735;BME280;38631;47.572;10.704;2022-12-20T06:45:32;93009.19;;;-0.16;100.00
52735;BME280;38631;47.572;10.704;2022-12-20T06:47:58;93016.09;;;-0.10;100.00
52735;BME280;38631;47.572;10.704;2022-12-20T06:50:24;93015.88;;;-0.09;100.00
52735;BME280;38631;47.572;10.704;2022-12-20T06:52:49;93015.31;;;-0.23;100.00
52735;BME280;38631;47.572;10.704;2022-12-20T06:55:14;93010.09;;;-0.11;100.00
52735;BME280;38631;47.572;10.704;2022-12-20T06:57:40;93013.06;;;-0.07;100.00
52735;BME280;38631;47.572;10.704;2022-12-20T07:00:06;93010.78;;;-0.04;100.00
52735;BME280;38631;47.572;10.704;2022-12-20T07:02:32;93009.28;;;-0.23;100.00
52735;BME280;38631;47.572;10.704;2022-12-20T07:04:58;93013.84;;;-0.18;100.00
52735;BME280;38631;47.572;10.704;2022-12-20T07:07:23;93005.88;;;-0.35;100.00
52735;BME280;38631;47.572;10.704;2022-12-20T07:09:48;93005.00;;;-0.29;100.00
52735;BME280;38631;47.572;10.704;2022-12-20T07:12:14;93006.09;;;-0.25;100.00
52735;BME280;38631;47.572;10.704;2022-12-20T07:14:39;92998.84;;;-0.23;100.00
52735;BME280;38631;47.572;10.704;2022-12-20T07:17:04;93002.16;;;-0.04;100.00
52735;BME280;38631;47.572;10.704;2022-12-20T07:19:30;93007.38;;;-0.16;100.00
52735;BME280;38631;47.572;10.704;2022-12-20T07:21:55;93021.66;;;-0.18;100.00
52735;BME280;38631;47.572;10.704;2022-12-20T07:24:21;93007.72;;;-0.12;100.00
52735;BME280;38631;47.572;10.704;2022-12-20T07:26:46;93018.03;;;-0.06;100.00
52735;BME280;38631;47.572;10.704;2022-12-20T07:29:12;93016.31;;;-0.24;100.00
52735;BME280;38631;47.572;10.704;2022-12-20T07:31:38;93019.41;;;-0.15;100.00
52735;BME280;38631;47.572;10.704;2022-12-20T07:34:03;93017.00;;;-0.28;100.00
52735;BME280;38631;47.572;10.704;2022-12-20T07:36:29;93010.44;;;-0.19;100.00
52735;BME280;38631;47.572;10.704;2022-12-20T07:38:54;93010.34;;;-0.12;100.00
52735;BME280;38631;47.572;10.704;2022-12-20T07:41:20;93013.97;;;-0.02;100.00
52735;BME280;38631;47.572;10.704;2022-12-20T07:43:45;93012.38;;;-0.14;100.00
52735;BME280;38631;47.572;10.704;2022-12-20T07:46:12;93017.13;;;-0.11;100.00
52735;BME280;38631;47.572;10.704;2022-12-20T07:48:38;93014.97;;;-0.14;100.00
52735;BME280;38631;47.572;10.704;2022-12-20T07:51:16;93010.19;;;-0.06;100.00
52735;BME280;38631;47.572;10.704;2022-12-20T07:53:49;93009.97;;;-0.16;100.00
52735;BME280;38631;47.572;10.704;2022-12-20T07:56:17;93008.06;;;-0.09;100.00
52735;BME280;38631;47.572;10.704;2022-12-20T07:58:45;93006.13;;;-0.02;100.00
52735;BME280;38631;47.572;10.704;2022-12-20T08:01:11;93002.72;;;-0.02;100.00
52735;BME280;38631;47.572;10.704;2022-12-20T08:03:45;93000.78;;;-0.07;100.00
52735;BME280;38631;47.572;10.704;2022-12-20T08:06:12;93001.81;;;0.04;100.00
52735;BME280;38631;47.572;10.704;2022-12-20T08:08:42;93008.47;;;0.24;100.00
52735;BME280;38631;47.572;10.704;2022-12-20T08:11:10;93004.25;;;0.22;100.00
52735;BME280;38631;47.572;10.704;2022-12-20T08:13:36;93002.31;;;0.30;100.00
52735;BME280;38631;47.572;10.704;2022-12-20T08:16:02;93001.44;;;0.36;100.00
52735;BME280;38631;47.572;10.704;2022-12-20T08:18:27;92999.81;;;0.47;100.00
52735;BME280;38631;47.572;10.704;2022-12-20T08:20:53;92999.81;;;0.47;100.00
52735;BME280;38631;47.572;10.704;2022-12-20T08:23:18;92999.13;;;0.51;100.00
52735;BME280;38631;47.572;10.704;2022-12-20T08:25:44;93009.56;;;0.51;100.00
52735;BME280;38631;47.572;10.704;2022-12-20T08:28:09;93002.28;;;0.53;100.00
52735;BME280;38631;47.572;10.704;2022-12-20T08:30:35;93009.09;;;0.54;100.00
52735;BME280;38631;47.572;10.704;2022-12-20T08:33:00;93001.81;;;0.56;100.00
52735;BME280;38631;47.572;10.704;2022-12-20T08:35:26;93010.22;;;0.58;100.00
52735;BME280;38631;47.572;10.704;2022-12-20T08:37:51;92999.22;;;0.56;100.00
52735;BME280;38631;47.572;10.704;2022-12-20T08:40:17;93001.69;;;0.63;100.00
52735;BME280;38631;47.572;10.704;2022-12-20T08:42:43;93002.13;;;0.60;100.00
52735;BME280;38631;47.572;10.704;2022-12-20T08:45:09;93006.78;;;0.70;100.00
52735;BME280;38631;47.572;10.704;2022-12-20T08:47:34;92998.94;;;0.70;100.00
52735;BME280;38631;47.572;10.704;2022-12-20T08:50:00;92993.97;;;0.68;100.00
52735;BME280;38631;47.572;10.704;2022-12-20T08:52:27;92992.22;;;0.74;100.00
52735;BME280;38631;47.572;10.704;2022-12-20T08:54:53;92989.72;;;0.79;100.00
52735;BME280;38631;47.572;10.704;2022-12-20T08:57:18;92978.22;;;0.80;100.00
52735;BME280;38631;47.572;10.704;2022-12-20T08:59:43;92978.78;;;0.82;100.00
52735;BME280;38631;47.572;10.704;2022-12-20T09:02:09;92969.69;;;0.84;100.00
52735;BME280;38631;47.572;10.704;2022-12-20T09:04:34;92971.81;;;0.88;100.00
52735;BME280;38631;47.572;10.704;2022-12-20T09:06:59;92971.56;;;1.01;100.00
52735;BME280;38631;47.572;10.704;2022-12-20T09:09:25;92974.72;;;1.03;100.00
52735;BME280;38631;47.572;10.704;2022-12-20T09:11:50;92967.28;;;1.12;100.00
52735;BME280;38631;47.572;10.704;2022-12-20T09:14:16;92967.06;;;1.13;100.00
52735;BME280;38631;47.572;10.704;2022-12-20T09:16:42;92970.16;;;1.27;100.00
52735;BME280;38631;47.572;10.704;2022-12-20T09:19:11;92964.59;;;1.40;100.00
52735;BME280;38631;47.572;10.704;2022-12-20T09:21:36;92971.19;;;1.43;100.00
52735;BME280;38631;47.572;10.704;2022-12-20T09:24:02;92965.56;;;1.51;100.00
52735;BME280;38631;47.572;10.704;2022-12-20T09:26:27;92965.38;;;1.58;100.00
52735;BME280;38631;47.572;10.704;2022-12-20T09:28:52;92963.25;;;1.55;100.00
52735;BME280;38631;47.572;10.704;2022-12-20T09:31:20;92960.94;;;1.75;100.00
52735;BME280;38631;47.572;10.704;2022-12-20T09:33:46;92966.72;;;1.77;100.00
52735;BME280;38631;47.572;10.704;2022-12-20T09:36:18;92969.84;;;1.74;100.00
52735;BME280;38631;47.572;10.704;2022-12-20T09:38:44;92970.47;;;1.81;100.00
52735;BME280;38631;47.572;10.704;2022-12-20T09:41:36;92963.09;;;1.78;100.00
52735;BME280;38631;47.572;10.704;2022-12-20T09:44:26;92966.44;;;1.73;100.00
52735;BME280;38631;47.572;10.704;2022-12-20T09:46:55;92970.63;;;1.75;100.00
52735;BME280;38631;47.572;10.704;2022-12-20T09:49:26;92967.94;;;1.69;100.00
52735;BME280;38631;47.572;10.704;2022-12-20T09:58:15;92963.31;;;1.77;100.00
52735;BME280;38631;47.572;10.704;2022-12-20T10:00:48;92967.06;;;1.81;100.00
52735;BME280;38631;47.572;10.704;2022-12-20T10:03:40;92956.25;;;1.77;100.00
52735;BME280;38631;47.572;10.704;2022-12-20T10:06:16;92960.16;;;1.75;100.00
52735;BME280;38631;47.572;10.704;2022-12-20T10:08:56;92948.81;;;1.86;100.00
52735;BME280;38631;47.572;10.704;2022-12-20T10:11:38;92938.34;;;1.86;100.00
52735;BME280;38631;47.572;10.704;2022-12-20T10:20:08;92942.47;;;1.82;100.00
52735;BME280;38631;47.572;10.704;2022-12-20T10:25:32;92930.94;;;2.22;100.00
52735;BME280;38631;47.572;10.704;2022-12-20T10:28:00;92920.88;;;2.13;100.00
52735;BME280;38631;47.572;10.704;2022-12-20T10:30:28;92918.78;;;2.15;100.00
52735;BME280;38631;47.572;10.704;2022-12-20T10:32:55;92911.38;;;2.07;100.00
52735;BME280;38631;47.572;10.704;2022-12-20T10:35:28;92906.38;;;2.06;100.00
52735;BME280;38631;47.572;10.704;2022-12-20T10:38:11;92896.56;;;2.18;100.00
52735;BME280;38631;47.572;10.704;2022-12-20T10:41:00;92893.59;;;2.09;100.00
52735;BME280;38631;47.572;10.704;2022-12-20T10:43:25;92886.84;;;2.13;100.00
52735;BME280;38631;47.572;10.704;2022-12-20T10:46:03;92883.66;;;2.11;100.00
52735;BME280;38631;47.572;10.704;2022-12-20T10:48:38;92872.56;;;2.26;100.00
52735;BME280;38631;47.572;10.704;2022-12-20T10:53:49;92860.66;;;2.41;100.00
52735;BME280;38631;47.572;10.704;2022-12-20T10:56:26;92859.25;;;2.33;100.00
52735;BME280;38631;47.572;10.704;2022-12-20T10:59:00;92859.16;;;2.23;100.00
52735;BME280;38631;47.572;10.704;2022-12-20T11:01:35;92848.44;;;2.24;100.00
52735;BME280;38631;47.572;10.704;2022-12-20T11:04:03;92843.84;;;2.36;100.00
52735;BME280;38631;47.572;10.704;2022-12-20T11:06:41;92840.13;;;2.32;100.00
52735;BME280;38631;47.572;10.704;2022-12-20T11:09:27;92835.09;;;2.26;100.00
52735;BME280;38631;47.572;10.704;2022-12-20T11:12:05;92836.94;;;2.52;100.00
52735;BME280;38631;47.572;10.704;2022-12-20T11:14:34;92826.91;;;2.44;100.00
52735;BME280;38631;47.572;10.704;2022-12-20T11:17:04;92823.59;;;2.54;100.00
52735;BME280;38631;47.572;10.704;2022-12-20T11:19:50;92826.63;;;2.46;100.00
52735;BME280;38631;47.572;10.704;2022-12-20T11:22:42;92820.06;;;2.43;100.00
52735;BME280;38631;47.572;10.704;2022-12-20T11:36:59;92799.94;;;2.49;100.00
52735;BME280;38631;47.572;10.704;2022-12-20T11:39:42;92779.38;;;2.35;100.00
52735;BME280;38631;47.572;10.704;2022-12-20T11:42:18;92780.91;;;2.31;100.00
52735;BME280;38631;47.572;10.704;2022-12-20T11:45:37;92777.84;;;2.40;100.00
52735;BME280;38631;47.572;10.704;2022-12-20T11:51:01;92782.75;;;2.31;100.00
52735;BME280;38631;47.572;10.704;2022-12-20T11:53:38;92766.03;;;2.37;100.00
52735;BME280;38631;47.572;10.704;2022-12-20T11:56:20;92775.22;;;2.40;100.00
52735;BME280;38631;47.572;10.704;2022-12-20T11:58:48;92763.69;;;2.41;100.00
52735;BME280;38631;47.572;10.704;2022-12-20T12:01:18;92756.38;;;2.43;100.00
52735;BME280;38631;47.572;10.704;2022-12-20T12:06:29;92750.81;;;2.34;100.00
52735;BME280;38631;47.572;10.704;2022-12-20T12:11:52;92750.25;;;2.32;100.00
52735;BME280;38631;47.572;10.704;2022-12-20T12:17:26;92745.19;;;2.52;100.00
52735;BME280;38631;47.572;10.704;2022-12-20T12:20:03;92734.47;;;2.54;100.00
52735;BME280;38631;47.572;10.704;2022-12-20T12:22:33;92732.06;;;2.47;100.00
52735;BME280;38631;47.572;10.704;2022-12-20T12:25:02;92754.91;;;2.52;100.00
52735;BME280;38631;47.572;10.704;2022-12-20T12:27:30;92748.56;;;2.48;100.00
52735;BME280;38631;47.572;10.704;2022-12-20T12:29:57;92742.91;;;2.61;100.00
52735;BME280;38631;47.572;10.704;2022-12-20T12:32:36;92736.88;;;2.60;100.00
52735;BME280;38631;47.572;10.704;2022-12-20T12:35:37;92735.28;;;2.59;100.00
52735;BME280;38631;47.572;10.704;2022-12-20T12:46:08;92725.00;;;2.53;100.00
52735;BME280;38631;47.572;10.704;2022-12-20T12:48:42;92715.06;;;2.55;100.00
52735;BME280;38631;47.572;10.704;2022-12-20T12:51:10;92715.56;;;2.52;100.00
52735;BME280;38631;47.572;10.704;2022-12-20T12:53:43;92718.28;;;2.62;100.00
52735;BME280;38631;47.572;10.704;2022-12-20T13:06:54;92700.16;;;2.98;100.00
52735;BME280;38631;47.572;10.704;2022-12-20T13:11:48;92678.69;;;3.01;100.00
52735;BME280;38631;47.572;10.704;2022-12-20T13:16:47;92670.09;;;3.21;100.00
52735;BME280;38631;47.572;10.704;2022-12-20T13:21:54;92675.56;;;3.09;100.00
52735;BME280;38631;47.572;10.704;2022-12-20T13:24:44;92687.50;;;2.85;100.00
52735;BME280;38631;47.572;10.704;2022-12-20T13:29:59;92681.22;;;2.91;100.00
52735;BME280;38631;47.572;10.704;2022-12-20T13:42:58;92660.72;;;2.83;100.00
52735;BME280;38631;47.572;10.704;2022-12-20T13:45:28;92673.75;;;2.67;100.00
52735;BME280;38631;47.572;10.704;2022-12-20T13:47:57;92668.78;;;2.71;100.00
52735;BME280;38631;47.572;10.704;2022-12-20T13:50:34;92664.63;;;2.75;100.00
52735;BME280;38631;47.572;10.704;2022-12-20T13:53:04;92652.81;;;2.77;100.00
52735;BME280;38631;47.572;10.704;2022-12-20T13:55:36;92660.13;;;2.70;100.00
52735;BME280;38631;47.572;10.704;2022-12-20T13:58:04;92662.47;;;2.67;100.00
52735;BME280;38631;47.572;10.704;2022-12-20T14:00:31;92661.66;;;2.61;100.00
52735;BME280;38631;47.572;10.704;2022-12-20T14:02:56;92670.78;;;2.53;100.00
52735;BME280;38631;47.572;10.704;2022-12-20T14:05:24;92675.69;;;2.45;100.00
52735;BME280;38631;47.572;10.704;2022-12-20T14:07:59;92686.09;;;2.34;100.00
52735;BME280;38631;47.572;10.704;2022-12-20T14:10:28;92680.88;;;2.40;100.00
52735;BME280;38631;47.572;10.704;2022-12-20T14:12:54;92675.38;;;2.36;100.00
52735;BME280;38631;47.572;10.704;2022-12-20T14:15:23;92662.97;;;2.26;100.00
52735;BME280;38631;47.572;10.704;2022-12-20T14:17:48;92671.94;;;2.35;100.00
52735;BME280;38631;47.572;10.704;2022-12-20T14:20:16;92664.63;;;2.37;100.00
52735;BME280;38631;47.572;10.704;2022-12-20T14:22:52;92664.59;;;2.32;100.00